Time;durP1;ratioP1;P1;durP2;ratioP2;P2;SDS_P1;SDS_P2;PMS_P1;PMS_P2;Temp;Humidity;BMP_temperature;BMP_pressure;BME280_temperature;BME280_humidity;BME280_pressure;Samples;Min_cycle;Max_cycle;Signal;HPM_P1;HPM_P2
2022/06/01 00:01:13;;;;;;;7.37;4.30;;;15.70;97.00;;;;;;6129264;23;20427;-83
2022/06/01 00:03:42;;;;;;;5.70;4.07;;;15.60;97.00;;;;;;6103725;23;21255;-83
2022/06/01 00:06:10;;;;;;;5.30;4.80;;;15.60;97.10;;;;;;6130341;23;20408;-81
2022/06/01 00:08:40;;;;;;;5.27;4.57;;;15.60;97.10;;;;;;6126233;23;20998;-82
2022/06/01 00:11:08;;;;;;;5.60;4.10;;;15.80;96.70;;;;;;6090587;23;20408;-82
2022/06/01 00:13:35;;;;;;;5.60;4.13;;;15.90;96.40;;;;;;6120411;23;20428;-83
2022/06/01 00:16:02;;;;;;;6.30;4.70;;;15.70;96.40;;;;;;6094947;23;20399;-82
2022/06/01 00:18:29;;;;;;;7.10;5.67;;;15.90;96.50;;;;;;6116159;23;20454;-84
2022/06/01 00:20:56;;;;;;;4.70;4.30;;;15.80;96.30;;;;;;6090220;23;20419;-84
2022/06/01 00:23:22;;;;;;;5.63;4.53;;;15.80;96.50;;;;;;6092706;23;20455;-83
2022/06/01 00:25:49;;;;;;;5.53;5.03;;;15.80;96.80;;;;;;6094033;23;20396;-81
2022/06/01 00:28:16;;;;;;;5.80;5.00;;;15.90;96.30;;;;;;6121186;23;20442;-82
2022/06/01 00:30:43;;;;;;;5.40;4.90;;;15.80;96.00;;;;;;6093407;23;21292;-83
2022/06/01 00:33:11;;;;;;;4.60;4.20;;;15.80;96.00;;;;;;6117866;23;20420;-83
2022/06/01 00:35:37;;;;;;;5.57;4.83;;;15.70;95.80;;;;;;6092514;23;20388;-84
2022/06/01 00:38:05;;;;;;;4.43;4.03;;;15.50;96.00;;;;;;6114166;23;20463;-83
2022/06/01 00:40:37;;;;;;;5.90;4.67;;;15.50;96.20;;;;;;6118748;23;20403;-84
2022/06/01 00:43:35;;;;;;;4.50;4.20;;;15.20;96.30;;;;;;6090558;23;20452;-81
2022/06/01 00:46:02;;;;;;;4.30;3.87;;;15.20;96.60;;;;;;6121509;23;20548;-82
2022/06/01 00:48:32;;;;;;;3.90;3.07;;;15.20;96.30;;;;;;6115610;23;20439;-82
2022/06/01 00:50:59;;;;;;;4.40;3.77;;;15.20;95.90;;;;;;6090314;23;20404;-84
2022/06/01 00:53:29;;;;;;;3.33;2.83;;;15.10;95.80;;;;;;6089335;23;20419;-82
2022/06/01 00:55:59;;;;;;;3.50;3.20;;;15.10;95.60;;;;;;6089906;23;20439;-81
2022/06/01 00:58:30;;;;;;;3.10;2.80;;;15.00;95.30;;;;;;6116255;23;20446;-82
2022/06/01 01:00:58;;;;;;;3.43;3.13;;;14.80;95.40;;;;;;6093654;23;20419;-83
2022/06/01 01:03:33;;;;;;;3.37;2.70;;;14.80;95.50;;;;;;6117548;23;20506;-84
2022/06/01 01:06:17;;;;;;;6.23;2.73;;;14.80;96.00;;;;;;6092829;23;20490;-81
2022/06/01 01:08:49;;;;;;;2.97;2.77;;;14.70;95.70;;;;;;6117443;23;20435;-84
2022/06/01 01:11:21;;;;;;;4.60;2.80;;;14.70;95.90;;;;;;6118196;23;20392;-84
2022/06/01 01:13:50;;;;;;;3.33;2.93;;;14.70;96.00;;;;;;6118844;23;20403;-80
2022/06/01 01:16:20;;;;;;;3.47;2.97;;;14.60;95.90;;;;;;6098299;23;20411;-82
2022/06/01 01:18:48;;;;;;;3.77;2.90;;;14.60;96.00;;;;;;6100297;23;20435;-81
2022/06/01 01:21:39;;;;;;;3.07;2.80;;;14.60;96.00;;;;;;6095478;23;20470;-81
2022/06/01 01:24:14;;;;;;;3.20;2.90;;;14.60;96.20;;;;;;6092322;23;20442;-84
2022/06/01 01:26:48;;;;;;;4.23;2.80;;;14.60;96.10;;;;;;6117921;23;20388;-82
2022/06/01 01:29:17;;;;;;;2.73;2.53;;;14.50;96.10;;;;;;6118466;23;20445;-83
2022/06/01 01:31:43;;;;;;;2.80;2.60;;;14.50;96.20;;;;;;6094925;23;20400;-83
2022/06/01 01:34:10;;;;;;;3.83;2.97;;;14.40;96.20;;;;;;6118186;23;20416;-83
2022/06/01 01:36:54;;;;;;;3.30;3.00;;;14.40;96.30;;;;;;6117456;23;20411;-83
2022/06/01 01:39:22;;;;;;;2.93;2.30;;;14.50;96.20;;;;;;6092060;23;20439;-83
2022/06/01 01:41:52;;;;;;;2.73;2.53;;;14.60;96.10;;;;;;6119232;23;20415;-82
2022/06/01 01:44:31;;;;;;;2.63;2.43;;;14.50;96.00;;;;;;6097576;23;20536;-83
2022/06/01 01:46:58;;;;;;;6.60;2.80;;;14.50;95.90;;;;;;6121630;23;20403;-83
2022/06/01 01:49:38;;;;;;;2.63;2.43;;;14.50;95.70;;;;;;6126068;23;20455;-81
2022/06/01 01:52:08;;;;;;;2.30;2.20;;;14.40;95.60;;;;;;6119789;23;20406;-83
2022/06/01 01:55:11;;;;;;;3.70;2.47;;;14.30;96.00;;;;;;6120254;23;20451;-81
2022/06/01 01:57:53;;;;;;;3.47;3.17;;;14.40;96.10;;;;;;6118120;23;20399;-81
2022/06/01 02:00:25;;;;;;;3.30;3.00;;;14.30;96.10;;;;;;6120176;23;20388;-81
2022/06/01 02:02:58;;;;;;;2.40;2.20;;;14.20;96.30;;;;;;6095364;23;20447;-84
2022/06/01 02:08:35;;;;;;;3.13;2.73;;;14.40;95.80;;;;;;6140841;23;20446;-82
2022/06/01 02:14:05;;;;;;;3.00;2.80;;;14.30;95.50;;;;;;6140762;23;20392;-83
2022/06/01 02:16:40;;;;;;;2.30;2.20;;;14.30;95.40;;;;;;6140464;23;20407;-81
2022/06/01 02:19:14;;;;;;;5.40;2.87;;;14.30;95.50;;;;;;6115238;23;20454;-81
2022/06/01 02:21:41;;;;;;;3.70;3.20;;;14.20;95.60;;;;;;6139475;23;20377;-80
2022/06/01 02:24:08;;;;;;;2.93;2.47;;;14.20;95.50;;;;;;6140329;23;20439;-81
2022/06/01 02:26:35;;;;;;;3.30;2.40;;;14.10;95.50;;;;;;6139792;23;20402;-82
2022/06/01 02:29:09;;;;;;;2.73;2.30;;;14.00;95.70;;;;;;6139485;23;20504;-82
2022/06/01 02:31:39;;;;;;;3.13;2.83;;;14.00;95.90;;;;;;6104132;23;20408;-84
2022/06/01 02:34:09;;;;;;;2.87;2.63;;;13.90;95.90;;;;;;6114952;23;20408;-83
2022/06/01 02:36:40;;;;;;;2.77;2.50;;;13.90;95.90;;;;;;6094046;23;20537;-83
2022/06/01 02:39:09;;;;;;;2.70;2.50;;;13.80;96.20;;;;;;6094887;23;20439;-81
2022/06/01 02:44:22;;;;;;;3.23;2.90;;;13.70;96.40;;;;;;6127618;23;20438;-81
2022/06/01 02:46:52;;;;;;;2.77;2.57;;;13.80;96.20;;;;;;6123099;23;20415;-83
2022/06/01 02:49:19;;;;;;;3.37;2.83;;;13.80;96.20;;;;;;6097059;23;20446;-81
2022/06/01 02:51:46;;;;;;;2.47;2.23;;;13.70;96.40;;;;;;6124146;23;20482;-83
2022/06/01 02:54:14;;;;;;;4.50;2.77;;;13.60;96.50;;;;;;6108630;23;20449;-82
2022/06/01 02:56:41;;;;;;;3.90;2.80;;;13.60;96.80;;;;;;6137704;23;20422;-82
2022/06/01 02:59:07;;;;;;;3.10;2.80;;;13.60;96.60;;;;;;6116281;23;20532;-81
2022/06/01 03:01:36;;;;;;;2.80;2.60;;;13.50;96.80;;;;;;6140680;23;20459;-82
2022/06/01 03:04:05;;;;;;;2.93;2.33;;;13.50;96.90;;;;;;6129633;23;20435;-81
2022/06/01 03:06:32;;;;;;;3.90;3.10;;;13.50;97.00;;;;;;6124252;23;20433;-82
2022/06/01 03:09:19;;;;;;;4.90;2.80;;;13.60;96.80;;;;;;6101266;23;20438;-83
2022/06/01 03:11:46;;;;;;;3.30;2.93;;;13.60;96.60;;;;;;6122773;23;20418;-82
2022/06/01 03:14:13;;;;;;;2.90;2.60;;;13.50;96.70;;;;;;6123558;23;20408;-82
2022/06/01 03:16:40;;;;;;;4.10;3.23;;;13.50;96.80;;;;;;6121671;23;20490;-84
2022/06/01 03:19:07;;;;;;;3.00;2.80;;;13.50;97.10;;;;;;6124239;23;20436;-80
2022/06/01 03:21:34;;;;;;;2.37;2.27;;;13.50;96.80;;;;;;6122568;23;20400;-82
2022/06/01 03:24:09;;;;;;;3.20;2.63;;;13.50;96.70;;;;;;6119579;23;20465;-82
2022/06/01 03:26:39;;;;;;;3.17;2.87;;;13.50;96.60;;;;;;6120378;23;20822;-83
2022/06/01 03:29:08;;;;;;;4.53;2.40;;;13.50;96.70;;;;;;6094250;23;20507;-84
2022/06/01 03:31:35;;;;;;;5.00;2.90;;;13.40;96.70;;;;;;6118593;23;20419;-84
2022/06/01 03:34:03;;;;;;;4.40;2.57;;;13.30;97.00;;;;;;6098106;23;20416;-83
2022/06/01 03:36:31;;;;;;;2.70;2.50;;;13.20;97.20;;;;;;6093277;23;20903;-82
2022/06/01 03:38:58;;;;;;;2.17;2.03;;;13.20;97.20;;;;;;6093399;23;21037;-83
2022/06/01 03:41:31;;;;;;;3.57;2.70;;;13.20;97.20;;;;;;6094894;23;20387;-84
2022/06/01 03:47:09;;;;;;;3.33;2.47;;;13.30;96.70;;;;;;6115167;23;20760;-84
2022/06/01 03:49:37;;;;;;;3.67;2.60;;;13.30;96.70;;;;;;6096354;23;20439;-82
2022/06/01 03:52:05;;;;;;;3.70;2.60;;;13.40;96.60;;;;;;6093348;23;20392;-82
2022/06/01 03:54:32;;;;;;;3.80;2.97;;;13.50;96.30;;;;;;6127293;23;20506;-82
2022/06/01 03:56:59;;;;;;;4.27;2.97;;;13.60;96.10;;;;;;6119304;23;20439;-81
2022/06/01 03:59:31;;;;;;;3.20;2.93;;;13.60;95.70;;;;;;6117813;23;20439;-83
2022/06/01 04:02:03;;;;;;;3.07;2.60;;;13.40;96.00;;;;;;6119149;23;20792;-81
2022/06/01 04:04:30;;;;;;;3.93;2.73;;;13.30;96.50;;;;;;6118766;23;20530;-83
2022/06/01 04:06:57;;;;;;;3.33;2.83;;;13.30;96.60;;;;;;6124642;23;20451;-81
2022/06/01 04:09:24;;;;;;;5.90;3.20;;;13.30;96.60;;;;;;6093390;23;21012;-82
2022/06/01 04:11:52;;;;;;;4.17;2.93;;;13.30;96.60;;;;;;6118106;23;20522;-82
2022/06/01 04:14:19;;;;;;;4.60;2.90;;;13.30;96.60;;;;;;6094946;23;20446;-83
2022/06/01 04:16:47;;;;;;;4.33;3.13;;;13.30;96.60;;;;;;6093785;23;20435;-81
2022/06/01 04:19:14;;;;;;;3.90;3.30;;;13.30;96.60;;;;;;6093469;23;20969;-82
2022/06/01 04:21:44;;;;;;;5.20;3.27;;;13.30;96.60;;;;;;6095984;23;20399;-81
2022/06/01 04:24:15;;;;;;;3.37;3.07;;;13.30;96.70;;;;;;6118893;23;20440;-83
2022/06/01 04:26:42;;;;;;;4.10;2.83;;;13.40;96.60;;;;;;6095058;23;20400;-84
2022/06/01 04:29:09;;;;;;;3.20;2.90;;;13.40;96.50;;;;;;6094207;23;20438;-83
2022/06/01 04:31:37;;;;;;;4.00;2.73;;;13.40;96.40;;;;;;6122708;23;20408;-83
2022/06/01 04:34:04;;;;;;;3.73;3.03;;;13.40;96.20;;;;;;6120562;23;20419;-82
2022/06/01 04:36:31;;;;;;;2.80;2.60;;;13.40;96.20;;;;;;6097593;23;20416;-81
2022/06/01 04:38:58;;;;;;;3.77;3.30;;;13.50;96.20;;;;;;6125832;23;20436;-81
2022/06/01 04:41:25;;;;;;;4.23;3.27;;;13.50;96.10;;;;;;6108566;23;20414;-82
2022/06/01 04:43:51;;;;;;;2.63;2.43;;;13.50;96.10;;;;;;6121669;23;20451;-81
2022/06/01 04:46:18;;;;;;;2.73;2.53;;;13.50;96.10;;;;;;6094943;23;20413;-82
2022/06/01 04:48:45;;;;;;;4.10;2.67;;;13.50;96.00;;;;;;6092744;23;20435;-82
2022/06/01 04:51:12;;;;;;;4.90;3.90;;;13.50;96.00;;;;;;6119850;23;20396;-82
2022/06/01 04:53:42;;;;;;;4.73;3.30;;;13.50;96.00;;;;;;6096993;23;20443;-82
2022/06/01 04:56:13;;;;;;;5.90;2.90;;;13.50;96.10;;;;;;6094637;23;20432;-81
2022/06/01 04:58:40;;;;;;;6.13;3.40;;;13.50;96.10;;;;;;6095696;23;20435;-82
2022/06/01 05:01:07;;;;;;;5.17;3.10;;;13.50;96.10;;;;;;6123025;23;20419;-82
2022/06/01 05:03:34;;;;;;;3.57;3.27;;;13.60;96.20;;;;;;6092655;23;20549;-83
2022/06/01 05:06:01;;;;;;;4.93;3.30;;;13.60;96.00;;;;;;6124564;23;20849;-84
2022/06/01 05:08:28;;;;;;;4.33;3.03;;;13.60;96.00;;;;;;6103688;23;21034;-83
2022/06/01 05:10:55;;;;;;;3.40;2.80;;;13.60;95.90;;;;;;6126263;23;20412;-85
2022/06/01 05:13:21;;;;;;;3.60;3.30;;;13.70;96.00;;;;;;6126411;23;20424;-81
2022/06/01 05:15:52;;;;;;;4.20;3.30;;;13.70;96.10;;;;;;6134386;23;20412;-80
2022/06/01 05:18:19;;;;;;;7.27;3.63;;;13.70;96.10;;;;;;6132827;23;20451;-82
2022/06/01 05:20:47;;;;;;;4.17;3.53;;;13.70;95.90;;;;;;6131299;23;20490;-81
2022/06/01 05:23:16;;;;;;;4.17;3.60;;;13.80;96.20;;;;;;6123174;23;20412;-83
2022/06/01 05:25:45;;;;;;;8.37;3.77;;;13.80;95.70;;;;;;6114624;23;20523;-83
2022/06/01 05:28:15;;;;;;;4.47;4.07;;;13.70;95.70;;;;;;6145106;23;20436;-82
2022/06/01 05:30:42;;;;;;;3.90;3.53;;;13.70;95.60;;;;;;6137027;23;20430;-83
2022/06/01 05:33:09;;;;;;;6.10;3.60;;;13.80;95.80;;;;;;6127515;23;20417;-82
2022/06/01 05:35:36;;;;;;;6.17;3.50;;;13.80;95.60;;;;;;6126470;23;20418;-82
2022/06/01 05:38:03;;;;;;;4.47;2.90;;;13.90;95.70;;;;;;6128075;23;20441;-81
2022/06/01 05:40:30;;;;;;;3.63;3.30;;;13.90;95.80;;;;;;6101578;23;20415;-82
2022/06/01 05:42:58;;;;;;;5.60;3.07;;;14.00;95.60;;;;;;6125537;23;20419;-84
2022/06/01 05:45:26;;;;;;;4.57;3.27;;;14.00;95.40;;;;;;6098033;23;20624;-83
2022/06/01 05:47:52;;;;;;;3.07;2.63;;;14.00;95.30;;;;;;6123440;23;20400;-83
2022/06/01 05:50:19;;;;;;;4.20;3.80;;;14.00;95.40;;;;;;6125380;23;21040;-82
2022/06/01 05:52:46;;;;;;;4.20;3.40;;;14.00;95.40;;;;;;6125591;23;20514;-83
2022/06/01 05:55:13;;;;;;;4.57;3.20;;;14.00;95.30;;;;;;6128275;23;20428;-82
2022/06/01 05:57:40;;;;;;;4.43;3.53;;;14.10;95.30;;;;;;6123583;23;20400;-82
2022/06/01 06:00:10;;;;;;;5.87;3.43;;;14.20;95.20;;;;;;6124318;23;21043;-82
2022/06/01 06:02:41;;;;;;;7.17;3.47;;;14.30;94.90;;;;;;6099873;23;20418;-81
2022/06/01 06:06:12;;;;;;;4.27;3.07;;;14.20;94.60;;;;;;6126222;23;20443;-81
2022/06/01 06:07:56;;;;;;;3.80;3.50;;;14.30;94.50;;;;;;6133280;23;20531;-83
2022/06/01 06:10:24;;;;;;;3.73;2.93;;;14.30;94.50;;;;;;6117892;23;20432;-83
2022/06/01 06:12:51;;;;;;;3.73;3.43;;;14.30;94.50;;;;;;6141460;23;20851;-84
2022/06/01 06:15:18;;;;;;;5.50;3.00;;;14.30;94.40;;;;;;6139366;23;20451;-83
2022/06/01 06:17:48;;;;;;;6.83;4.43;;;14.40;94.50;;;;;;6112758;23;21175;-83
2022/06/01 06:20:15;;;;;;;4.37;3.47;;;14.40;94.30;;;;;;6133423;23;20419;-82
2022/06/01 06:22:42;;;;;;;5.00;4.00;;;14.40;94.30;;;;;;6127675;23;20415;-82
2022/06/01 06:25:25;;;;;;;6.00;2.90;;;14.50;94.40;;;;;;6133422;23;20463;-80
2022/06/01 06:27:56;;;;;;;5.70;3.00;;;14.60;94.30;;;;;;6111173;23;20416;-82
2022/06/01 06:30:24;;;;;;;3.57;2.90;;;14.60;94.10;;;;;;6112942;23;20408;-81
2022/06/01 06:32:52;;;;;;;3.10;2.60;;;14.60;94.20;;;;;;6111450;23;20399;-82
2022/06/01 06:35:19;;;;;;;2.70;2.33;;;14.70;94.30;;;;;;6132500;23;20415;-80
2022/06/01 06:37:46;;;;;;;3.73;2.87;;;14.80;94.10;;;;;;6123536;23;20462;-83
2022/06/01 06:40:13;;;;;;;4.90;2.13;;;14.80;94.00;;;;;;6132938;23;21116;-83
2022/06/01 06:42:42;;;;;;;3.20;2.57;;;14.90;93.90;;;;;;6136493;23;20415;-81
2022/06/01 06:45:13;;;;;;;2.80;2.30;;;14.90;93.80;;;;;;6101085;23;20470;-82
2022/06/01 06:47:41;;;;;;;7.13;2.60;;;14.90;93.80;;;;;;6097179;23;20404;-83
2022/06/01 06:50:13;;;;;;;3.37;2.37;;;15.00;93.80;;;;;;6096644;23;20478;-82
2022/06/01 06:53:04;;;;;;;3.80;2.20;;;15.10;93.60;;;;;;6100505;23;20738;-81
2022/06/01 06:55:33;;;;;;;3.77;2.20;;;15.20;92.90;;;;;;6122064;23;20434;-84
2022/06/01 06:58:00;;;;;;;2.50;2.00;;;15.30;92.90;;;;;;6120611;23;20888;-81
2022/06/01 07:00:26;;;;;;;3.77;2.27;;;15.50;92.40;;;;;;6124967;23;20400;-81
2022/06/01 07:02:53;;;;;;;5.97;1.93;;;15.70;92.00;;;;;;6098391;23;20866;-84
2022/06/01 07:08:05;;;;;;;4.63;1.80;;;16.00;90.80;;;;;;6120844;23;20494;-83
2022/06/01 07:10:32;;;;;;;2.70;2.50;;;16.40;90.10;;;;;;6121538;23;20412;-84
2022/06/01 07:12:59;;;;;;;2.90;1.90;;;16.90;88.20;;;;;;6097390;23;20443;-82
2022/06/01 07:15:31;;;;;;;3.47;1.87;;;16.80;87.60;;;;;;6099592;23;20420;-84
2022/06/01 07:17:58;;;;;;;2.50;1.50;;;16.60;87.40;;;;;;6126030;23;20438;-83
2022/06/01 07:20:25;;;;;;;1.97;1.80;;;16.50;87.90;;;;;;6103983;23;20420;-82
2022/06/01 07:22:58;;;;;;;5.00;4.50;;;16.70;88.20;;;;;;6096101;23;20894;-84
2022/06/01 07:25:25;;;;;;;3.37;1.57;;;16.90;87.70;;;;;;6123331;23;20792;-84
2022/06/01 07:27:52;;;;;;;2.70;1.90;;;17.10;86.20;;;;;;6126162;23;20400;-83
2022/06/01 07:30:19;;;;;;;3.17;1.60;;;16.90;86.70;;;;;;6100830;23;20407;-84
2022/06/01 07:32:47;;;;;;;2.93;1.90;;;16.80;87.10;;;;;;6135957;23;20483;-82
2022/06/01 07:35:15;;;;;;;3.83;1.80;;;17.00;86.60;;;;;;6116210;23;20561;-83
2022/06/01 07:43:18;;;;;;;3.57;1.87;;;17.20;85.80;;;;;;6142693;23;20414;-83
2022/06/01 07:45:47;;;;;;;1.80;1.50;;;16.90;87.70;;;;;;6114336;23;20455;-82
2022/06/01 07:48:14;;;;;;;4.00;1.37;;;16.80;87.50;;;;;;6125776;23;20428;-83
2022/06/01 07:51:00;;;;;;;2.20;1.60;;;16.70;86.80;;;;;;6124417;23;20849;-84
2022/06/01 07:53:28;;;;;;;1.80;1.37;;;16.80;87.20;;;;;;6132251;23;20412;-81
2022/06/01 07:55:54;;;;;;;4.50;1.80;;;16.80;87.30;;;;;;6133044;23;20503;-82
2022/06/01 07:58:21;;;;;;;2.13;1.70;;;16.80;88.10;;;;;;6116855;23;20431;-82
2022/06/01 08:00:48;;;;;;;2.50;1.77;;;17.00;89.00;;;;;;6141479;23;20474;-80
2022/06/01 08:03:17;;;;;;;2.67;2.10;;;17.10;87.90;;;;;;6108405;23;20466;-82
2022/06/01 08:05:44;;;;;;;9.60;2.17;;;17.50;87.00;;;;;;6095753;23;20598;-83
2022/06/01 08:08:10;;;;;;;3.13;2.43;;;17.40;85.90;;;;;;6125307;23;20443;-81
2022/06/01 08:10:37;;;;;;;3.43;2.10;;;17.20;85.50;;;;;;6120362;23;20420;-82
2022/06/01 08:13:09;;;;;;;5.27;3.43;;;17.20;86.40;;;;;;6095228;23;20506;-84
2022/06/01 08:15:47;;;;;;;7.30;1.77;;;17.20;88.10;;;;;;6140121;23;20404;-82
2022/06/01 08:18:17;;;;;;;4.67;2.00;;;17.50;86.40;;;;;;6119057;23;20415;-82
2022/06/01 08:20:45;;;;;;;1.70;1.60;;;17.60;86.10;;;;;;6135481;23;20424;-81
2022/06/01 08:23:18;;;;;;;2.50;2.00;;;17.60;85.80;;;;;;6103831;23;20444;-83
2022/06/01 08:25:45;;;;;;;2.33;1.47;;;17.90;85.50;;;;;;6124226;23;20455;-84
2022/06/01 08:28:12;;;;;;;2.93;1.70;;;17.80;84.40;;;;;;6095908;23;20471;-81
2022/06/01 08:30:40;;;;;;;6.40;1.70;;;17.70;84.40;;;;;;6124450;23;20415;-83
2022/06/01 08:33:07;;;;;;;3.73;1.20;;;17.50;83.30;;;;;;6097838;23;20419;-82
2022/06/01 08:35:37;;;;;;;1.47;1.37;;;17.40;83.70;;;;;;6125147;23;20400;-85
2022/06/01 08:38:05;;;;;;;2.23;1.53;;;17.50;82.10;;;;;;6096492;23;20499;-83
2022/06/01 08:40:53;;;;;;;2.37;1.50;;;17.40;82.10;;;;;;6121743;23;20484;-83
2022/06/01 08:43:24;;;;;;;3.70;1.57;;;17.40;82.10;;;;;;6097796;23;20399;-82
2022/06/01 08:46:00;;;;;;;4.37;1.67;;;17.40;81.90;;;;;;6121750;23;20450;-83
2022/06/01 08:48:32;;;;;;;3.43;1.60;;;17.60;82.00;;;;;;6121768;23;20429;-82
2022/06/01 08:51:00;;;;;;;2.70;1.50;;;18.00;81.40;;;;;;6121201;23;20542;-84
2022/06/01 08:53:27;;;;;;;1.40;1.30;;;18.40;79.40;;;;;;6096476;23;20408;-83
2022/06/01 08:56:00;;;;;;;2.53;1.70;;;18.70;77.30;;;;;;6095681;23;20447;-82
2022/06/01 08:58:53;;;;;;;3.20;1.70;;;19.00;75.80;;;;;;6123769;23;20959;-83
2022/06/01 09:01:32;;;;;;;2.13;1.67;;;19.50;74.90;;;;;;6121373;23;20388;-81
2022/06/01 09:04:23;;;;;;;4.27;1.90;;;21.00;72.50;;;;;;6108426;23;20400;-81
2022/06/01 09:07:15;;;;;;;3.67;2.10;;;21.00;69.00;;;;;;6126888;23;20422;-84
2022/06/01 09:10:20;;;;;;;3.60;2.20;;;20.70;69.10;;;;;;6125260;23;20480;-81
2022/06/01 09:13:01;;;;;;;1.73;1.53;;;20.50;69.30;;;;;;6099967;23;20447;-84
2022/06/01 09:15:51;;;;;;;2.20;2.00;;;20.20;67.30;;;;;;6121858;23;20507;-83
2022/06/01 09:18:28;;;;;;;1.83;1.53;;;21.50;65.60;;;;;;6095999;23;20465;-81
2022/06/01 09:23:44;;;;;;;3.87;1.87;;;22.00;60.60;;;;;;6123655;23;20396;-83
2022/06/01 09:26:24;;;;;;;6.80;1.57;;;21.90;60.80;;;;;;6098143;23;20444;-83
2022/06/01 09:28:55;;;;;;;1.60;1.50;;;22.40;59.20;;;;;;6104325;23;20462;-82
2022/06/01 09:31:30;;;;;;;2.67;1.50;;;22.10;58.80;;;;;;6109163;23;21037;-83
2022/06/01 09:34:16;;;;;;;4.37;1.60;;;22.00;59.40;;;;;;6119189;23;21090;-83
2022/06/01 09:36:54;;;;;;;1.20;1.00;;;23.50;55.80;;;;;;6132190;23;20447;-84
2022/06/01 09:39:22;;;;;;;2.33;1.23;;;23.80;55.00;;;;;;6110274;23;21320;-82
2022/06/01 09:41:49;;;;;;;3.50;1.70;;;25.70;51.80;;;;;;6130266;23;20907;-85
2022/06/01 09:44:18;;;;;;;6.40;2.27;;;26.10;50.30;;;;;;6100246;23;20493;-82
2022/06/01 09:46:47;;;;;;;2.63;2.00;;;24.80;50.60;;;;;;6096121;23;20457;-82
2022/06/01 09:49:30;;;;;;;3.30;2.07;;;23.30;52.90;;;;;;6122485;23;20444;-83
2022/06/01 09:52:07;;;;;;;2.40;1.47;;;22.60;54.50;;;;;;6119891;23;20790;-82
2022/06/01 09:54:38;;;;;;;2.40;1.77;;;22.70;55.00;;;;;;6096950;23;20395;-84
2022/06/01 09:57:25;;;;;;;2.20;2.00;;;24.20;53.40;;;;;;6120448;23;20420;-82
2022/06/01 10:08:22;;;;;;;1.50;1.40;;;21.70;54.40;;;;;;6119899;23;21080;-83
2022/06/01 10:10:59;;;;;;;2.27;1.63;;;21.00;56.10;;;;;;6121454;23;20458;-84
2022/06/01 10:13:37;;;;;;;1.50;1.40;;;21.00;56.90;;;;;;6124728;23;20404;-83
2022/06/01 10:16:10;;;;;;;2.60;1.50;;;21.60;56.50;;;;;;6123741;23;21157;-82
2022/06/01 10:18:39;;;;;;;2.47;1.50;;;22.50;54.80;;;;;;6123611;23;20510;-84
2022/06/01 10:21:13;;;;;;;2.63;1.80;;;22.40;53.80;;;;;;6124599;23;20404;-83
2022/06/01 10:23:51;;;;;;;3.83;1.50;;;22.00;54.60;;;;;;6125315;23;21140;-83
2022/06/01 10:26:31;;;;;;;2.70;1.40;;;21.80;55.30;;;;;;6134542;23;20443;-83
2022/06/01 10:29:14;;;;;;;2.17;1.40;;;22.40;53.50;;;;;;6119134;23;20444;-83
2022/06/01 10:31:51;;;;;;;1.73;1.60;;;22.60;52.70;;;;;;6106719;23;20690;-83
2022/06/01 10:34:35;;;;;;;4.63;1.37;;;23.00;52.50;;;;;;6120819;23;20396;-82
2022/06/01 10:37:03;;;;;;;2.03;1.60;;;23.40;51.60;;;;;;6116772;23;20418;-85
2022/06/01 10:39:50;;;;;;;3.10;1.80;;;22.90;53.40;;;;;;6118268;23;20450;-82
2022/06/01 10:43:16;;;;;;;2.10;1.67;;;22.50;54.20;;;;;;6121844;23;20424;-83
2022/06/01 10:45:15;;;;;;;2.07;1.60;;;22.20;55.10;;;;;;6117701;23;20436;-83
2022/06/01 10:47:59;;;;;;;2.87;2.00;;;22.30;55.20;;;;;;6118253;23;20396;-84
2022/06/01 10:50:32;;;;;;;1.70;1.50;;;21.90;55.80;;;;;;6125320;23;20491;-83
2022/06/01 10:53:13;;;;;;;1.67;1.57;;;21.40;56.80;;;;;;6120609;23;20407;-83
2022/06/01 10:55:43;;;;;;;2.03;1.50;;;21.00;57.10;;;;;;6095247;23;20423;-83
2022/06/01 10:58:21;;;;;;;3.33;1.40;;;20.80;58.00;;;;;;6095065;23;20451;-83
2022/06/01 11:01:09;;;;;;;3.20;1.80;;;21.10;58.00;;;;;;6122973;23;20460;-84
2022/06/01 11:04:01;;;;;;;3.00;1.93;;;21.40;56.70;;;;;;6121339;23;20467;-84
2022/06/01 11:06:53;;;;;;;2.50;1.47;;;21.70;56.00;;;;;;6126225;23;20768;-84
2022/06/01 11:09:29;;;;;;;4.63;1.60;;;21.60;55.70;;;;;;6122761;23;20510;-85
2022/06/01 11:12:29;;;;;;;2.40;1.63;;;21.40;56.10;;;;;;6121623;23;20403;-84
2022/06/01 11:15:01;;;;;;;3.60;1.77;;;21.40;56.60;;;;;;6096310;23;20400;-83
2022/06/01 11:17:35;;;;;;;1.70;1.60;;;21.00;56.70;;;;;;6124443;23;21250;-82
2022/06/01 11:20:48;;;;;;;1.93;1.53;;;20.80;57.00;;;;;;6106811;23;20396;-82
2022/06/01 11:23:53;;;;;;;2.03;1.80;;;20.90;57.40;;;;;;6006030;23;20455;-82
2022/06/01 11:26:51;;;;;;;2.40;1.90;;;21.20;57.00;;;;;;6128430;23;20943;-83
2022/06/01 11:29:20;;;;;;;2.37;1.40;;;21.40;56.50;;;;;;6123373;23;20802;-83
2022/06/01 11:32:01;;;;;;;1.63;1.53;;;21.40;56.40;;;;;;6122581;23;20459;-82
2022/06/01 11:34:55;;;;;;;1.67;1.57;;;21.50;55.90;;;;;;6096205;23;20864;-83
2022/06/01 11:37:46;;;;;;;3.93;1.60;;;21.50;56.20;;;;;;6041952;23;20565;-83
2022/06/01 11:40:46;;;;;;;1.77;1.40;;;21.80;54.30;;;;;;6123026;23;20396;-83
2022/06/01 11:43:20;;;;;;;2.90;1.60;;;21.70;54.10;;;;;;6122962;23;20406;-83
2022/06/01 11:46:16;;;;;;;3.37;1.30;;;21.80;54.80;;;;;;6125597;23;20502;-82
2022/06/01 11:49:13;;;;;;;1.73;1.63;;;21.90;54.60;;;;;;6122941;23;20412;-81
2022/06/01 11:51:49;;;;;;;2.00;1.40;;;22.30;54.70;;;;;;6071220;23;20404;-84
2022/06/01 11:54:36;;;;;;;2.20;1.70;;;22.60;53.80;;;;;;6100285;23;20400;-82
2022/06/01 11:57:22;;;;;;;3.30;1.67;;;23.00;53.00;;;;;;6101428;23;20435;-83
2022/06/01 12:00:11;;;;;;;3.90;1.70;;;22.90;51.80;;;;;;6122684;23;20503;-83
2022/06/01 12:02:50;;;;;;;4.73;1.77;;;22.90;52.10;;;;;;6123329;23;20398;-83
2022/06/01 12:05:32;;;;;;;2.10;1.47;;;23.00;52.10;;;;;;6123752;23;20388;-80
2022/06/01 12:08:06;;;;;;;4.33;1.60;;;23.00;52.00;;;;;;6095368;23;20448;-83
2022/06/01 12:10:53;;;;;;;6.30;1.90;;;23.30;51.10;;;;;;6121297;23;20423;-82
2022/06/01 12:13:26;;;;;;;2.33;1.80;;;22.80;49.20;;;;;;6096269;23;21109;-83
2022/06/01 12:16:26;;;;;;;6.43;1.50;;;22.10;49.60;;;;;;6120359;23;20420;-83
2022/06/01 12:19:11;;;;;;;1.30;1.20;;;21.80;50.70;;;;;;6097739;23;20771;-82
2022/06/01 12:21:44;;;;;;;3.13;1.97;;;21.50;51.60;;;;;;6125599;23;20394;-82
2022/06/01 12:30:00;;;;;;;3.30;1.60;;;22.00;50.70;;;;;;6122621;23;20466;-82
2022/06/01 12:32:50;;;;;;;3.37;1.40;;;22.30;50.10;;;;;;6120556;23;20972;-83
2022/06/01 12:35:20;;;;;;;1.30;1.03;;;22.90;48.30;;;;;;6131864;23;20411;-83
2022/06/01 12:37:58;;;;;;;2.30;1.10;;;24.30;46.50;;;;;;6133767;23;20402;-82
2022/06/01 12:40:26;;;;;;;3.83;1.30;;;24.50;46.00;;;;;;6109900;23;20471;-81
2022/06/01 12:42:58;;;;;;;2.33;1.13;;;24.80;44.70;;;;;;6107506;23;20462;-82
2022/06/01 12:45:34;;;;;;;3.00;1.50;;;23.80;45.40;;;;;;6123864;23;20419;-83
2022/06/01 12:48:19;;;;;;;3.80;1.70;;;23.30;47.00;;;;;;6124386;23;20466;-83
2022/06/01 12:50:58;;;;;;;2.30;2.07;;;23.20;47.10;;;;;;6120932;23;20399;-84
2022/06/01 12:53:46;;;;;;;2.77;1.30;;;22.90;47.90;;;;;;6127528;23;21134;-82
2022/06/01 12:56:19;;;;;;;5.60;1.43;;;22.70;47.80;;;;;;6124417;23;20420;-82
2022/06/01 12:58:51;;;;;;;1.50;1.40;;;22.60;47.60;;;;;;6139298;23;20512;-82
2022/06/01 13:01:28;;;;;;;2.90;1.47;;;22.50;47.60;;;;;;6142557;23;20394;-82
2022/06/01 13:03:58;;;;;;;2.87;1.50;;;22.80;47.80;;;;;;6104282;23;20975;-83
2022/06/01 13:06:26;;;;;;;3.50;1.53;;;23.20;47.70;;;;;;6126091;23;20424;-83
2022/06/01 13:09:06;;;;;;;2.57;1.73;;;23.50;47.90;;;;;;6105972;23;20438;-82
2022/06/01 13:11:33;;;;;;;5.43;1.40;;;23.60;48.00;;;;;;6130379;23;20810;-83
2022/06/01 13:14:06;;;;;;;2.20;1.23;;;23.40;46.10;;;;;;6109700;23;21079;-83
2022/06/01 13:16:47;;;;;;;1.50;1.40;;;23.30;45.90;;;;;;6132343;23;21027;-83
2022/06/01 13:19:27;;;;;;;1.60;1.50;;;23.10;46.40;;;;;;6132561;23;20424;-83
2022/06/01 13:21:54;;;;;;;3.30;1.30;;;22.80;46.60;;;;;;6130312;23;20490;-84
2022/06/01 13:24:22;;;;;;;2.40;1.43;;;22.70;45.60;;;;;;6122786;23;20404;-84
2022/06/01 13:26:52;;;;;;;1.77;1.40;;;22.50;45.00;;;;;;6125023;23;20481;-82
2022/06/01 13:29:24;;;;;;;3.50;1.77;;;22.30;46.00;;;;;;6106594;23;20459;-82
2022/06/01 13:32:00;;;;;;;1.70;1.27;;;22.20;46.70;;;;;;6125789;23;20425;-84
2022/06/01 13:34:31;;;;;;;2.97;1.50;;;22.10;47.10;;;;;;6125806;23;20474;-84
2022/06/01 13:37:10;;;;;;;1.50;1.40;;;21.90;47.20;;;;;;6122587;23;20515;-86
2022/06/01 13:39:43;;;;;;;1.90;1.73;;;21.80;48.50;;;;;;6126554;23;20802;-81
2022/06/01 13:42:22;;;;;;;4.27;1.80;;;21.80;49.70;;;;;;6124421;23;20751;-83
2022/06/01 13:45:11;;;;;;;2.37;1.70;;;21.60;49.80;;;;;;6102007;23;20882;-83
2022/06/01 13:47:59;;;;;;;4.30;2.27;;;21.50;50.50;;;;;;6116612;23;20432;-83
2022/06/01 13:50:30;;;;;;;5.10;1.63;;;21.40;51.10;;;;;;6094659;23;20400;-84
2022/06/01 13:53:20;;;;;;;2.27;1.67;;;21.30;50.70;;;;;;6121112;23;20427;-83
2022/06/01 13:56:19;;;;;;;4.70;1.60;;;21.30;51.90;;;;;;6094248;23;20396;-84